LGTS/SKG METAR and TAF weather

Enter ICAO airport designator
Station Type Date Time Source
LGTS METAR 2023/09/21 18:50 UTC NOAA

LGTS 211850Z VRB02KT 9999 FEW030 22/20 Q1016 NOSIG


Station Type Date Time Source
LGTS Decoded METAR 2023/09/21 18:50 UTC NOAA

Thessaloniki Airport , Greece (LGTS) 40-31N 022-58E 4M
Sep 21, 2023 - 02:50 PM EDT / 2023.09.21 1850 UTC
Wind: Variable at 2 MPH (2 KT):0
Visibility: greater than 7 mile(s):0
Sky conditions: mostly clear
Temperature: 71 F (22 C)
Dew Point: 68 F (20 C)
Relative Humidity: 88%
Pressure (altimeter): 30.00 in. Hg (1016 hPa)
ob: LGTS 211850Z VRB02KT 9999 FEW030 22/20 Q1016 NOSIG
cycle: 19

Station Type Date Time Source
LGTS TAF 2023/09/21 18:12 UTC NOAA

TAF LGTS 211700Z 2118/2218 VRB03KT 9999 FEW030

Example: see airport list